sensor_id;sensor_type;location;lat;lon;timestamp;P1;durP1;ratioP1;P2;durP2;ratioP2
48114;SDS011;33903;44.704;10.448;2024-03-02T00:02:41;14.98;;;8.70;;
48114;SDS011;33903;44.704;10.448;2024-03-02T00:05:49;15.13;;;8.50;;
48114;SDS011;33903;44.704;10.448;2024-03-02T00:08:56;17.25;;;7.95;;
48114;SDS011;33903;44.704;10.448;2024-03-02T00:12:03;15.18;;;8.63;;
48114;SDS011;33903;44.704;10.448;2024-03-02T00:18:47;29.55;;;9.30;;
48114;SDS011;33903;44.704;10.448;2024-03-02T00:21:52;16.13;;;9.05;;
48114;SDS011;33903;44.704;10.448;2024-03-02T00:24:56;22.40;;;8.68;;
48114;SDS011;33903;44.704;10.448;2024-03-02T00:28:01;23.83;;;9.98;;
48114;SDS011;33903;44.704;10.448;2024-03-02T00:31:06;21.73;;;7.75;;
48114;SDS011;33903;44.704;10.448;2024-03-02T00:34:12;16.27;;;8.77;;
48114;SDS011;33903;44.704;10.448;2024-03-02T00:37:20;24.17;;;9.95;;
48114;SDS011;33903;44.704;10.448;2024-03-02T00:40:27;17.27;;;7.68;;
48114;SDS011;33903;44.704;10.448;2024-03-02T00:43:41;16.35;;;8.23;;
48114;SDS011;33903;44.704;10.448;2024-03-02T00:46:49;17.05;;;9.55;;
48114;SDS011;33903;44.704;10.448;2024-03-02T00:49:53;19.52;;;9.38;;
48114;SDS011;33903;44.704;10.448;2024-03-02T00:52:57;23.58;;;10.55;;
48114;SDS011;33903;44.704;10.448;2024-03-02T00:56:02;18.10;;;9.13;;
48114;SDS011;33903;44.704;10.448;2024-03-02T00:59:07;15.90;;;9.05;;
48114;SDS011;33903;44.704;10.448;2024-03-02T01:02:13;20.67;;;9.23;;
48114;SDS011;33903;44.704;10.448;2024-03-02T01:05:18;19.95;;;9.18;;
48114;SDS011;33903;44.704;10.448;2024-03-02T01:08:23;23.80;;;9.07;;
48114;SDS011;33903;44.704;10.448;2024-03-02T01:11:29;20.80;;;8.45;;
48114;SDS011;33903;44.704;10.448;2024-03-02T01:14:33;12.63;;;7.93;;
48114;SDS011;33903;44.704;10.448;2024-03-02T01:17:39;23.02;;;9.95;;
48114;SDS011;33903;44.704;10.448;2024-03-02T01:20:43;25.05;;;12.57;;
48114;SDS011;33903;44.704;10.448;2024-03-02T01:23:48;25.25;;;10.00;;
48114;SDS011;33903;44.704;10.448;2024-03-02T01:26:53;23.23;;;11.65;;
48114;SDS011;33903;44.704;10.448;2024-03-02T01:29:58;18.80;;;11.60;;
48114;SDS011;33903;44.704;10.448;2024-03-02T01:33:04;23.08;;;12.20;;
48114;SDS011;33903;44.704;10.448;2024-03-02T01:36:09;20.88;;;11.88;;
48114;SDS011;33903;44.704;10.448;2024-03-02T01:39:14;17.20;;;12.65;;
48114;SDS011;33903;44.704;10.448;2024-03-02T01:42:18;26.40;;;12.18;;
48114;SDS011;33903;44.704;10.448;2024-03-02T01:45:23;14.23;;;11.70;;
48114;SDS011;33903;44.704;10.448;2024-03-02T01:48:28;21.67;;;12.43;;
48114;SDS011;33903;44.704;10.448;2024-03-02T01:51:32;23.80;;;14.10;;
48114;SDS011;33903;44.704;10.448;2024-03-02T01:54:37;20.02;;;13.77;;
48114;SDS011;33903;44.704;10.448;2024-03-02T01:57:41;23.02;;;12.57;;
48114;SDS011;33903;44.704;10.448;2024-03-02T02:00:49;21.38;;;13.63;;
48114;SDS011;33903;44.704;10.448;2024-03-02T02:03:54;24.02;;;13.82;;
48114;SDS011;33903;44.704;10.448;2024-03-02T02:06:59;19.83;;;13.05;;
48114;SDS011;33903;44.704;10.448;2024-03-02T02:10:04;22.02;;;13.80;;
48114;SDS011;33903;44.704;10.448;2024-03-02T02:13:09;26.75;;;14.88;;
48114;SDS011;33903;44.704;10.448;2024-03-02T02:16:13;25.13;;;14.30;;
48114;SDS011;33903;44.704;10.448;2024-03-02T02:19:18;23.35;;;14.52;;
48114;SDS011;33903;44.704;10.448;2024-03-02T02:22:23;29.02;;;15.82;;
48114;SDS011;33903;44.704;10.448;2024-03-02T02:25:27;21.95;;;14.82;;
48114;SDS011;33903;44.704;10.448;2024-03-02T02:28:32;24.65;;;16.20;;
48114;SDS011;33903;44.704;10.448;2024-03-02T02:31:40;23.83;;;15.80;;
48114;SDS011;33903;44.704;10.448;2024-03-02T02:34:45;29.23;;;15.43;;
48114;SDS011;33903;44.704;10.448;2024-03-02T02:37:50;22.27;;;15.95;;
48114;SDS011;33903;44.704;10.448;2024-03-02T02:40:56;24.77;;;15.60;;
48114;SDS011;33903;44.704;10.448;2024-03-02T02:44:00;25.73;;;15.85;;
48114;SDS011;33903;44.704;10.448;2024-03-02T02:47:04;25.98;;;14.88;;
48114;SDS011;33903;44.704;10.448;2024-03-02T02:50:10;20.98;;;14.15;;
48114;SDS011;33903;44.704;10.448;2024-03-02T02:53:15;20.25;;;14.73;;
48114;SDS011;33903;44.704;10.448;2024-03-02T02:56:19;26.38;;;14.25;;
48114;SDS011;33903;44.704;10.448;2024-03-02T02:59:24;26.13;;;16.02;;
48114;SDS011;33903;44.704;10.448;2024-03-02T03:02:29;25.42;;;16.17;;
48114;SDS011;33903;44.704;10.448;2024-03-02T03:05:34;27.90;;;16.67;;
48114;SDS011;33903;44.704;10.448;2024-03-02T03:08:38;24.00;;;16.52;;
48114;SDS011;33903;44.704;10.448;2024-03-02T03:11:43;30.48;;;17.70;;
48114;SDS011;33903;44.704;10.448;2024-03-02T03:14:48;25.30;;;17.35;;
48114;SDS011;33903;44.704;10.448;2024-03-02T03:17:52;21.70;;;17.33;;
48114;SDS011;33903;44.704;10.448;2024-03-02T03:20:57;23.77;;;16.30;;
48114;SDS011;33903;44.704;10.448;2024-03-02T03:24:01;23.13;;;15.23;;
48114;SDS011;33903;44.704;10.448;2024-03-02T03:27:06;24.23;;;16.13;;
48114;SDS011;33903;44.704;10.448;2024-03-02T03:30:10;23.88;;;15.45;;
48114;SDS011;33903;44.704;10.448;2024-03-02T03:33:15;24.58;;;16.83;;
48114;SDS011;33903;44.704;10.448;2024-03-02T03:36:20;21.08;;;14.80;;
48114;SDS011;33903;44.704;10.448;2024-03-02T03:39:24;20.67;;;14.60;;
48114;SDS011;33903;44.704;10.448;2024-03-02T03:42:28;19.70;;;14.90;;
48114;SDS011;33903;44.704;10.448;2024-03-02T03:45:33;26.00;;;15.23;;
48114;SDS011;33903;44.704;10.448;2024-03-02T03:48:38;23.92;;;14.85;;
48114;SDS011;33903;44.704;10.448;2024-03-02T03:51:43;27.10;;;14.80;;
48114;SDS011;33903;44.704;10.448;2024-03-02T03:54:47;18.15;;;13.43;;
48114;SDS011;33903;44.704;10.448;2024-03-02T03:57:51;29.65;;;16.35;;
48114;SDS011;33903;44.704;10.448;2024-03-02T04:00:56;26.23;;;14.20;;
48114;SDS011;33903;44.704;10.448;2024-03-02T04:04:03;22.42;;;13.80;;
48114;SDS011;33903;44.704;10.448;2024-03-02T04:07:08;17.83;;;13.25;;
48114;SDS011;33903;44.704;10.448;2024-03-02T04:10:12;18.05;;;13.85;;
48114;SDS011;33903;44.704;10.448;2024-03-02T04:13:17;19.00;;;13.60;;
48114;SDS011;33903;44.704;10.448;2024-03-02T04:16:21;20.45;;;14.30;;
48114;SDS011;33903;44.704;10.448;2024-03-02T04:19:26;19.80;;;13.63;;
48114;SDS011;33903;44.704;10.448;2024-03-02T04:22:32;22.52;;;13.88;;
48114;SDS011;33903;44.704;10.448;2024-03-02T04:25:38;21.20;;;15.15;;
48114;SDS011;33903;44.704;10.448;2024-03-02T04:28:42;22.42;;;14.57;;
48114;SDS011;33903;44.704;10.448;2024-03-02T04:31:47;18.40;;;14.82;;
48114;SDS011;33903;44.704;10.448;2024-03-02T04:34:51;16.67;;;13.48;;
48114;SDS011;33903;44.704;10.448;2024-03-02T04:37:55;19.95;;;14.20;;
48114;SDS011;33903;44.704;10.448;2024-03-02T04:41:00;20.73;;;13.90;;
48114;SDS011;33903;44.704;10.448;2024-03-02T04:44:05;19.88;;;15.32;;
48114;SDS011;33903;44.704;10.448;2024-03-02T04:47:12;17.67;;;14.80;;
48114;SDS011;33903;44.704;10.448;2024-03-02T04:50:16;19.05;;;14.35;;
48114;SDS011;33903;44.704;10.448;2024-03-02T04:53:21;20.67;;;14.60;;
48114;SDS011;33903;44.704;10.448;2024-03-02T04:56:25;23.40;;;16.00;;
48114;SDS011;33903;44.704;10.448;2024-03-02T04:59:35;22.90;;;15.15;;
48114;SDS011;33903;44.704;10.448;2024-03-02T05:02:40;20.77;;;14.18;;
48114;SDS011;33903;44.704;10.448;2024-03-02T05:05:44;23.63;;;16.08;;
48114;SDS011;33903;44.704;10.448;2024-03-02T05:08:48;22.05;;;15.40;;
48114;SDS011;33903;44.704;10.448;2024-03-02T05:11:53;22.85;;;15.65;;
48114;SDS011;33903;44.704;10.448;2024-03-02T05:15:14;21.55;;;14.50;;
48114;SDS011;33903;44.704;10.448;2024-03-02T05:18:19;19.80;;;14.65;;
48114;SDS011;33903;44.704;10.448;2024-03-02T05:21:24;22.67;;;15.00;;
48114;SDS011;33903;44.704;10.448;2024-03-02T05:24:29;20.05;;;13.90;;
48114;SDS011;33903;44.704;10.448;2024-03-02T05:27:33;19.00;;;13.60;;
48114;SDS011;33903;44.704;10.448;2024-03-02T05:30:37;17.90;;;13.48;;
48114;SDS011;33903;44.704;10.448;2024-03-02T05:33:42;20.67;;;13.98;;
48114;SDS011;33903;44.704;10.448;2024-03-02T05:36:47;17.98;;;13.52;;
48114;SDS011;33903;44.704;10.448;2024-03-02T05:39:51;20.67;;;13.70;;
48114;SDS011;33903;44.704;10.448;2024-03-02T05:42:57;15.80;;;13.52;;
48114;SDS011;33903;44.704;10.448;2024-03-02T05:46:01;21.40;;;15.07;;
48114;SDS011;33903;44.704;10.448;2024-03-02T05:49:07;17.88;;;12.45;;
48114;SDS011;33903;44.704;10.448;2024-03-02T05:52:14;19.60;;;13.98;;
48114;SDS011;33903;44.704;10.448;2024-03-02T05:55:18;19.77;;;14.20;;
48114;SDS011;33903;44.704;10.448;2024-03-02T05:58:23;15.63;;;13.10;;
48114;SDS011;33903;44.704;10.448;2024-03-02T06:01:50;18.90;;;13.13;;
48114;SDS011;33903;44.704;10.448;2024-03-02T06:04:55;17.65;;;12.68;;
48114;SDS011;33903;44.704;10.448;2024-03-02T06:08:00;19.85;;;13.45;;
48114;SDS011;33903;44.704;10.448;2024-03-02T06:11:05;20.80;;;13.02;;
48114;SDS011;33903;44.704;10.448;2024-03-02T06:14:10;19.48;;;13.07;;
48114;SDS011;33903;44.704;10.448;2024-03-02T06:17:14;16.67;;;12.00;;
48114;SDS011;33903;44.704;10.448;2024-03-02T06:20:19;16.65;;;11.95;;
48114;SDS011;33903;44.704;10.448;2024-03-02T06:23:27;16.77;;;11.95;;
48114;SDS011;33903;44.704;10.448;2024-03-02T06:26:31;15.02;;;11.80;;
48114;SDS011;33903;44.704;10.448;2024-03-02T06:29:36;20.70;;;13.35;;
48114;SDS011;33903;44.704;10.448;2024-03-02T06:32:41;20.60;;;11.57;;
48114;SDS011;33903;44.704;10.448;2024-03-02T06:35:45;14.68;;;10.70;;
48114;SDS011;33903;44.704;10.448;2024-03-02T06:38:50;14.18;;;10.93;;
48114;SDS011;33903;44.704;10.448;2024-03-02T06:41:54;18.38;;;12.07;;
48114;SDS011;33903;44.704;10.448;2024-03-02T06:44:59;15.80;;;10.50;;
48114;SDS011;33903;44.704;10.448;2024-03-02T06:48:04;11.90;;;9.15;;
48114;SDS011;33903;44.704;10.448;2024-03-02T06:51:09;12.40;;;9.80;;
48114;SDS011;33903;44.704;10.448;2024-03-02T06:54:13;12.45;;;8.77;;
48114;SDS011;33903;44.704;10.448;2024-03-02T06:57:19;11.75;;;8.65;;
48114;SDS011;33903;44.704;10.448;2024-03-02T07:00:25;11.65;;;9.30;;
48114;SDS011;33903;44.704;10.448;2024-03-02T07:03:29;12.07;;;9.00;;
48114;SDS011;33903;44.704;10.448;2024-03-02T07:06:34;10.23;;;8.43;;
48114;SDS011;33903;44.704;10.448;2024-03-02T07:09:38;9.55;;;8.00;;
48114;SDS011;33903;44.704;10.448;2024-03-02T07:12:43;11.05;;;8.00;;
48114;SDS011;33903;44.704;10.448;2024-03-02T07:15:49;11.68;;;7.45;;
48114;SDS011;33903;44.704;10.448;2024-03-02T07:19:12;10.70;;;8.20;;
48114;SDS011;33903;44.704;10.448;2024-03-02T07:22:17;13.10;;;7.40;;
48114;SDS011;33903;44.704;10.448;2024-03-02T07:25:22;11.63;;;7.75;;
48114;SDS011;33903;44.704;10.448;2024-03-02T07:28:27;10.15;;;8.32;;
48114;SDS011;33903;44.704;10.448;2024-03-02T07:31:32;10.75;;;8.20;;
48114;SDS011;33903;44.704;10.448;2024-03-02T07:34:38;11.27;;;9.02;;
48114;SDS011;33903;44.704;10.448;2024-03-02T07:37:42;10.90;;;9.00;;
48114;SDS011;33903;44.704;10.448;2024-03-02T07:40:47;10.32;;;8.45;;
48114;SDS011;33903;44.704;10.448;2024-03-02T07:43:55;12.85;;;8.57;;
48114;SDS011;33903;44.704;10.448;2024-03-02T07:46:59;12.70;;;9.23;;
48114;SDS011;33903;44.704;10.448;2024-03-02T07:50:05;13.20;;;9.55;;
48114;SDS011;33903;44.704;10.448;2024-03-02T07:53:10;13.77;;;9.90;;
48114;SDS011;33903;44.704;10.448;2024-03-02T07:56:15;15.15;;;10.27;;
48114;SDS011;33903;44.704;10.448;2024-03-02T07:59:26;13.23;;;10.07;;
48114;SDS011;33903;44.704;10.448;2024-03-02T08:02:31;11.35;;;9.55;;
48114;SDS011;33903;44.704;10.448;2024-03-02T08:05:35;11.25;;;8.68;;
48114;SDS011;33903;44.704;10.448;2024-03-02T08:08:40;10.93;;;8.52;;
48114;SDS011;33903;44.704;10.448;2024-03-02T08:11:45;10.65;;;8.70;;
48114;SDS011;33903;44.704;10.448;2024-03-02T08:14:49;9.95;;;8.07;;
48114;SDS011;33903;44.704;10.448;2024-03-02T08:17:54;11.75;;;9.27;;
48114;SDS011;33903;44.704;10.448;2024-03-02T08:21:00;13.18;;;8.65;;
48114;SDS011;33903;44.704;10.448;2024-03-02T08:24:05;11.27;;;8.20;;
48114;SDS011;33903;44.704;10.448;2024-03-02T08:27:10;10.75;;;8.48;;
48114;SDS011;33903;44.704;10.448;2024-03-02T08:30:15;10.65;;;8.70;;
48114;SDS011;33903;44.704;10.448;2024-03-02T08:33:19;12.15;;;9.13;;
48114;SDS011;33903;44.704;10.448;2024-03-02T08:36:23;11.27;;;10.07;;
48114;SDS011;33903;44.704;10.448;2024-03-02T08:39:28;15.68;;;12.05;;
48114;SDS011;33903;44.704;10.448;2024-03-02T08:42:33;14.00;;;10.85;;
48114;SDS011;33903;44.704;10.448;2024-03-02T08:45:40;15.68;;;12.50;;
48114;SDS011;33903;44.704;10.448;2024-03-02T08:48:46;16.65;;;12.45;;
48114;SDS011;33903;44.704;10.448;2024-03-02T08:51:51;18.13;;;13.77;;
48114;SDS011;33903;44.704;10.448;2024-03-02T08:54:58;22.30;;;15.07;;
48114;SDS011;33903;44.704;10.448;2024-03-02T08:58:04;19.85;;;15.27;;
48114;SDS011;33903;44.704;10.448;2024-03-02T09:01:09;20.48;;;16.13;;
48114;SDS011;33903;44.704;10.448;2024-03-02T09:04:16;23.73;;;16.92;;
48114;SDS011;33903;44.704;10.448;2024-03-02T09:07:21;25.23;;;17.08;;
48114;SDS011;33903;44.704;10.448;2024-03-02T09:10:26;25.67;;;17.83;;
48114;SDS011;33903;44.704;10.448;2024-03-02T09:13:31;26.58;;;17.83;;
48114;SDS011;33903;44.704;10.448;2024-03-02T09:16:37;29.30;;;19.08;;
48114;SDS011;33903;44.704;10.448;2024-03-02T09:19:42;24.80;;;18.00;;
48114;SDS011;33903;44.704;10.448;2024-03-02T09:22:49;27.23;;;19.00;;
48114;SDS011;33903;44.704;10.448;2024-03-02T09:25:53;27.88;;;19.33;;
48114;SDS011;33903;44.704;10.448;2024-03-02T09:28:58;30.48;;;19.95;;
48114;SDS011;33903;44.704;10.448;2024-03-02T09:32:03;25.92;;;20.27;;
48114;SDS011;33903;44.704;10.448;2024-03-02T09:35:10;27.60;;;19.92;;
48114;SDS011;33903;44.704;10.448;2024-03-02T09:38:16;28.65;;;20.17;;
48114;SDS011;33903;44.704;10.448;2024-03-02T09:41:21;27.42;;;19.30;;
48114;SDS011;33903;44.704;10.448;2024-03-02T09:44:26;28.30;;;19.90;;
48114;SDS011;33903;44.704;10.448;2024-03-02T09:47:30;27.45;;;19.40;;
48114;SDS011;33903;44.704;10.448;2024-03-02T09:50:35;25.85;;;20.27;;
48114;SDS011;33903;44.704;10.448;2024-03-02T09:53:39;25.08;;;19.73;;
48114;SDS011;33903;44.704;10.448;2024-03-02T09:56:44;24.98;;;19.05;;
48114;SDS011;33903;44.704;10.448;2024-03-02T09:59:49;29.25;;;19.75;;
48114;SDS011;33903;44.704;10.448;2024-03-02T10:02:53;23.00;;;17.65;;
48114;SDS011;33903;44.704;10.448;2024-03-02T10:06:18;23.52;;;15.80;;
48114;SDS011;33903;44.704;10.448;2024-03-02T10:09:31;20.92;;;16.48;;
48114;SDS011;33903;44.704;10.448;2024-03-02T10:12:36;20.05;;;15.15;;
48114;SDS011;33903;44.704;10.448;2024-03-02T10:15:40;17.95;;;15.30;;
48114;SDS011;33903;44.704;10.448;2024-03-02T10:18:45;24.83;;;20.65;;
48114;SDS011;33903;44.704;10.448;2024-03-02T10:21:50;19.40;;;14.80;;
48114;SDS011;33903;44.704;10.448;2024-03-02T10:24:56;16.13;;;12.02;;
48114;SDS011;33903;44.704;10.448;2024-03-02T10:28:01;14.90;;;12.30;;
48114;SDS011;33903;44.704;10.448;2024-03-02T10:31:05;15.32;;;12.93;;
48114;SDS011;33903;44.704;10.448;2024-03-02T10:34:10;18.52;;;13.23;;
48114;SDS011;33903;44.704;10.448;2024-03-02T10:37:15;16.23;;;12.02;;
48114;SDS011;33903;44.704;10.448;2024-03-02T10:40:23;11.75;;;9.45;;
48114;SDS011;33903;44.704;10.448;2024-03-02T10:43:27;11.93;;;9.93;;
48114;SDS011;33903;44.704;10.448;2024-03-02T10:46:33;10.85;;;9.57;;
48114;SDS011;33903;44.704;10.448;2024-03-02T10:49:38;10.63;;;9.52;;
48114;SDS011;33903;44.704;10.448;2024-03-02T10:52:48;10.93;;;8.57;;
48114;SDS011;33903;44.704;10.448;2024-03-02T10:55:53;8.85;;;7.95;;
48114;SDS011;33903;44.704;10.448;2024-03-02T10:59:12;9.25;;;8.23;;
48114;SDS011;33903;44.704;10.448;2024-03-02T11:02:39;10.68;;;9.02;;
48114;SDS011;33903;44.704;10.448;2024-03-02T11:05:48;11.30;;;10.13;;
48114;SDS011;33903;44.704;10.448;2024-03-02T11:08:54;15.63;;;10.10;;
48114;SDS011;33903;44.704;10.448;2024-03-02T11:12:09;8.40;;;6.97;;
48114;SDS011;33903;44.704;10.448;2024-03-02T11:15:17;7.60;;;6.65;;
48114;SDS011;33903;44.704;10.448;2024-03-02T11:18:25;7.32;;;6.53;;
48114;SDS011;33903;44.704;10.448;2024-03-02T11:21:32;8.60;;;7.10;;
48114;SDS011;33903;44.704;10.448;2024-03-02T11:24:38;9.52;;;7.18;;
48114;SDS011;33903;44.704;10.448;2024-03-02T11:30:50;10.02;;;7.28;;
48114;SDS011;33903;44.704;10.448;2024-03-02T11:33:55;7.13;;;6.43;;
48114;SDS011;33903;44.704;10.448;2024-03-02T11:37:01;7.18;;;5.93;;
48114;SDS011;33903;44.704;10.448;2024-03-02T11:40:06;6.68;;;5.97;;
48114;SDS011;33903;44.704;10.448;2024-03-02T11:43:14;7.80;;;6.05;;
48114;SDS011;33903;44.704;10.448;2024-03-02T11:46:20;8.45;;;6.18;;
48114;SDS011;33903;44.704;10.448;2024-03-02T11:49:39;8.10;;;5.50;;
48114;SDS011;33903;44.704;10.448;2024-03-02T11:52:49;7.07;;;5.93;;
48114;SDS011;33903;44.704;10.448;2024-03-02T11:55:53;7.43;;;5.70;;
48114;SDS011;33903;44.704;10.448;2024-03-02T11:59:00;7.40;;;5.80;;
48114;SDS011;33903;44.704;10.448;2024-03-02T12:02:05;6.05;;;5.40;;
48114;SDS011;33903;44.704;10.448;2024-03-02T12:05:09;6.20;;;5.60;;
48114;SDS011;33903;44.704;10.448;2024-03-02T12:08:19;7.35;;;5.68;;
48114;SDS011;33903;44.704;10.448;2024-03-02T12:11:25;5.72;;;5.13;;
48114;SDS011;33903;44.704;10.448;2024-03-02T12:14:31;5.88;;;5.28;;
48114;SDS011;33903;44.704;10.448;2024-03-02T12:17:36;5.35;;;4.47;;
48114;SDS011;33903;44.704;10.448;2024-03-02T12:20:42;6.07;;;4.57;;
48114;SDS011;33903;44.704;10.448;2024-03-02T12:23:46;6.82;;;3.92;;
48114;SDS011;33903;44.704;10.448;2024-03-02T12:26:51;6.20;;;4.90;;
48114;SDS011;33903;44.704;10.448;2024-03-02T12:29:56;6.40;;;4.60;;
48114;SDS011;33903;44.704;10.448;2024-03-02T12:33:01;6.60;;;4.85;;
48114;SDS011;33903;44.704;10.448;2024-03-02T12:36:09;5.78;;;4.47;;
48114;SDS011;33903;44.704;10.448;2024-03-02T12:39:16;5.78;;;3.83;;
48114;SDS011;33903;44.704;10.448;2024-03-02T12:42:23;7.10;;;4.72;;
48114;SDS011;33903;44.704;10.448;2024-03-02T12:45:29;5.32;;;4.03;;
48114;SDS011;33903;44.704;10.448;2024-03-02T12:48:34;5.65;;;3.92;;
48114;SDS011;33903;44.704;10.448;2024-03-02T12:51:40;6.95;;;5.15;;
48114;SDS011;33903;44.704;10.448;2024-03-02T12:54:45;11.32;;;7.50;;
48114;SDS011;33903;44.704;10.448;2024-03-02T12:57:52;5.40;;;4.50;;
48114;SDS011;33903;44.704;10.448;2024-03-02T13:01:07;5.55;;;3.88;;
48114;SDS011;33903;44.704;10.448;2024-03-02T13:04:13;5.50;;;3.88;;
48114;SDS011;33903;44.704;10.448;2024-03-02T13:07:18;6.43;;;4.88;;
48114;SDS011;33903;44.704;10.448;2024-03-02T13:10:23;5.43;;;4.28;;
48114;SDS011;33903;44.704;10.448;2024-03-02T13:13:30;7.38;;;3.85;;
48114;SDS011;33903;44.704;10.448;2024-03-02T13:16:38;5.72;;;3.97;;
48114;SDS011;33903;44.704;10.448;2024-03-02T13:19:52;4.68;;;3.05;;
48114;SDS011;33903;44.704;10.448;2024-03-02T13:22:59;5.63;;;3.33;;
48114;SDS011;33903;44.704;10.448;2024-03-02T13:26:04;4.72;;;3.33;;
48114;SDS011;33903;44.704;10.448;2024-03-02T13:29:08;6.85;;;3.50;;
48114;SDS011;33903;44.704;10.448;2024-03-02T13:32:13;5.38;;;3.17;;
48114;SDS011;33903;44.704;10.448;2024-03-02T13:35:19;3.58;;;2.88;;
48114;SDS011;33903;44.704;10.448;2024-03-02T13:38:24;3.58;;;2.67;;
48114;SDS011;33903;44.704;10.448;2024-03-02T13:41:29;3.55;;;2.50;;
48114;SDS011;33903;44.704;10.448;2024-03-02T13:44:35;5.03;;;2.72;;
48114;SDS011;33903;44.704;10.448;2024-03-02T13:47:41;3.20;;;2.75;;
48114;SDS011;33903;44.704;10.448;2024-03-02T13:50:45;3.70;;;2.47;;
48114;SDS011;33903;44.704;10.448;2024-03-02T13:53:50;3.67;;;2.67;;
48114;SDS011;33903;44.704;10.448;2024-03-02T13:56:55;8.00;;;3.33;;
48114;SDS011;33903;44.704;10.448;2024-03-02T14:00:02;7.22;;;3.33;;
48114;SDS011;33903;44.704;10.448;2024-03-02T14:03:15;3.95;;;2.60;;
48114;SDS011;33903;44.704;10.448;2024-03-02T14:06:20;5.68;;;2.92;;
48114;SDS011;33903;44.704;10.448;2024-03-02T14:09:24;3.95;;;2.60;;
48114;SDS011;33903;44.704;10.448;2024-03-02T14:12:31;4.03;;;2.85;;
48114;SDS011;33903;44.704;10.448;2024-03-02T14:15:35;5.32;;;3.05;;
48114;SDS011;33903;44.704;10.448;2024-03-02T14:18:43;5.03;;;2.80;;
48114;SDS011;33903;44.704;10.448;2024-03-02T14:21:48;4.55;;;2.50;;
48114;SDS011;33903;44.704;10.448;2024-03-02T14:24:52;3.22;;;2.42;;
48114;SDS011;33903;44.704;10.448;2024-03-02T14:27:57;3.65;;;2.22;;
48114;SDS011;33903;44.704;10.448;2024-03-02T14:31:01;3.10;;;2.03;;
48114;SDS011;33903;44.704;10.448;2024-03-02T14:34:06;4.95;;;2.45;;
48114;SDS011;33903;44.704;10.448;2024-03-02T14:37:10;3.47;;;2.60;;
48114;SDS011;33903;44.704;10.448;2024-03-02T14:40:15;3.45;;;2.05;;
48114;SDS011;33903;44.704;10.448;2024-03-02T14:43:20;4.13;;;2.47;;
48114;SDS011;33903;44.704;10.448;2024-03-02T14:46:24;4.53;;;3.08;;
48114;SDS011;33903;44.704;10.448;2024-03-02T14:49:29;4.60;;;2.78;;
48114;SDS011;33903;44.704;10.448;2024-03-02T14:52:34;5.40;;;2.35;;
48114;SDS011;33903;44.704;10.448;2024-03-02T14:55:40;4.05;;;2.53;;
48114;SDS011;33903;44.704;10.448;2024-03-02T14:58:44;3.70;;;2.47;;
48114;SDS011;33903;44.704;10.448;2024-03-02T15:01:49;3.05;;;2.22;;
48114;SDS011;33903;44.704;10.448;2024-03-02T15:04:53;5.18;;;2.55;;
48114;SDS011;33903;44.704;10.448;2024-03-02T15:07:59;4.45;;;2.40;;
48114;SDS011;33903;44.704;10.448;2024-03-02T15:11:06;3.92;;;2.60;;
48114;SDS011;33903;44.704;10.448;2024-03-02T15:14:11;4.47;;;2.50;;
48114;SDS011;33903;44.704;10.448;2024-03-02T15:17:15;3.33;;;2.53;;
48114;SDS011;33903;44.704;10.448;2024-03-02T15:20:20;6.18;;;3.22;;
48114;SDS011;33903;44.704;10.448;2024-03-02T15:23:25;4.10;;;2.85;;
48114;SDS011;33903;44.704;10.448;2024-03-02T15:26:30;4.80;;;3.13;;
48114;SDS011;33903;44.704;10.448;2024-03-02T15:29:35;5.63;;;3.08;;
48114;SDS011;33903;44.704;10.448;2024-03-02T15:32:40;4.95;;;2.90;;
48114;SDS011;33903;44.704;10.448;2024-03-02T15:35:45;3.92;;;2.70;;
48114;SDS011;33903;44.704;10.448;2024-03-02T15:38:49;4.43;;;2.97;;
48114;SDS011;33903;44.704;10.448;2024-03-02T15:41:54;6.22;;;3.65;;
48114;SDS011;33903;44.704;10.448;2024-03-02T15:44:59;5.90;;;3.53;;
48114;SDS011;33903;44.704;10.448;2024-03-02T15:48:04;5.40;;;3.80;;
48114;SDS011;33903;44.704;10.448;2024-03-02T15:51:09;5.63;;;4.10;;
48114;SDS011;33903;44.704;10.448;2024-03-02T15:54:14;5.70;;;4.10;;
48114;SDS011;33903;44.704;10.448;2024-03-02T15:57:19;5.47;;;4.22;;
48114;SDS011;33903;44.704;10.448;2024-03-02T16:00:24;5.65;;;4.35;;
48114;SDS011;33903;44.704;10.448;2024-03-02T16:03:29;4.78;;;3.65;;
48114;SDS011;33903;44.704;10.448;2024-03-02T16:06:35;4.75;;;4.07;;
48114;SDS011;33903;44.704;10.448;2024-03-02T16:09:39;6.82;;;4.55;;
48114;SDS011;33903;44.704;10.448;2024-03-02T16:12:44;7.65;;;5.07;;
48114;SDS011;33903;44.704;10.448;2024-03-02T16:15:49;7.40;;;4.97;;
48114;SDS011;33903;44.704;10.448;2024-03-02T16:18:53;6.25;;;5.07;;
48114;SDS011;33903;44.704;10.448;2024-03-02T16:21:58;7.68;;;5.53;;
48114;SDS011;33903;44.704;10.448;2024-03-02T16:25:03;6.70;;;5.35;;
48114;SDS011;33903;44.704;10.448;2024-03-02T16:28:09;6.68;;;5.07;;
48114;SDS011;33903;44.704;10.448;2024-03-02T16:31:13;7.70;;;4.60;;
48114;SDS011;33903;44.704;10.448;2024-03-02T16:34:19;6.38;;;4.90;;
48114;SDS011;33903;44.704;10.448;2024-03-02T16:37:24;6.45;;;5.75;;
48114;SDS011;33903;44.704;10.448;2024-03-02T16:40:30;6.28;;;5.15;;
48114;SDS011;33903;44.704;10.448;2024-03-02T16:43:35;4.82;;;4.38;;
48114;SDS011;33903;44.704;10.448;2024-03-02T16:46:39;8.10;;;5.07;;
48114;SDS011;33903;44.704;10.448;2024-03-02T16:49:44;8.70;;;5.95;;
48114;SDS011;33903;44.704;10.448;2024-03-02T16:52:50;6.82;;;5.70;;
48114;SDS011;33903;44.704;10.448;2024-03-02T16:55:58;7.68;;;6.00;;
48114;SDS011;33903;44.704;10.448;2024-03-02T16:59:03;7.47;;;5.70;;
48114;SDS011;33903;44.704;10.448;2024-03-02T17:02:07;7.40;;;6.13;;
48114;SDS011;33903;44.704;10.448;2024-03-02T17:05:12;8.52;;;6.45;;
48114;SDS011;33903;44.704;10.448;2024-03-02T17:08:18;8.98;;;6.63;;
48114;SDS011;33903;44.704;10.448;2024-03-02T17:11:22;7.35;;;5.97;;
48114;SDS011;33903;44.704;10.448;2024-03-02T17:14:27;6.78;;;5.97;;
48114;SDS011;33903;44.704;10.448;2024-03-02T17:17:32;7.53;;;6.43;;
48114;SDS011;33903;44.704;10.448;2024-03-02T17:20:36;8.05;;;5.97;;
48114;SDS011;33903;44.704;10.448;2024-03-02T17:23:41;6.85;;;6.13;;
48114;SDS011;33903;44.704;10.448;2024-03-02T17:26:45;9.23;;;6.00;;
48114;SDS011;33903;44.704;10.448;2024-03-02T17:29:51;9.07;;;6.75;;
48114;SDS011;33903;44.704;10.448;2024-03-02T17:32:55;8.18;;;6.68;;
48114;SDS011;33903;44.704;10.448;2024-03-02T17:35:59;11.15;;;9.10;;
48114;SDS011;33903;44.704;10.448;2024-03-02T17:39:04;14.38;;;10.25;;
48114;SDS011;33903;44.704;10.448;2024-03-02T17:42:08;13.25;;;10.38;;
48114;SDS011;33903;44.704;10.448;2024-03-02T17:45:13;11.82;;;9.88;;
48114;SDS011;33903;44.704;10.448;2024-03-02T17:48:19;10.98;;;8.82;;
48114;SDS011;33903;44.704;10.448;2024-03-02T17:51:26;16.63;;;10.95;;
48114;SDS011;33903;44.704;10.448;2024-03-02T17:54:30;10.20;;;8.13;;
48114;SDS011;33903;44.704;10.448;2024-03-02T17:57:37;9.13;;;7.57;;
48114;SDS011;33903;44.704;10.448;2024-03-02T18:00:41;9.77;;;8.65;;
48114;SDS011;33903;44.704;10.448;2024-03-02T18:03:46;11.02;;;8.20;;
48114;SDS011;33903;44.704;10.448;2024-03-02T18:06:51;8.77;;;7.38;;
48114;SDS011;33903;44.704;10.448;2024-03-02T18:09:57;8.77;;;6.95;;
48114;SDS011;33903;44.704;10.448;2024-03-02T18:13:05;9.68;;;7.65;;